createdAt,value
2023-05-09T00:00:14.531Z,42.59
2023-05-09T00:01:14.457Z,42.61
2023-05-09T00:02:14.565Z,42.58
2023-05-09T00:03:14.585Z,42.58
2023-05-09T00:04:14.503Z,42.55
2023-05-09T00:05:14.644Z,42.59
2023-05-09T00:06:14.469Z,42.56
2023-05-09T00:07:14.477Z,42.56
2023-05-09T00:08:14.483Z,42.54
2023-05-09T00:09:14.487Z,42.53
2023-05-09T00:10:14.494Z,42.58
2023-05-09T00:11:14.493Z,42.58
2023-05-09T00:12:14.500Z,42.55
2023-05-09T00:13:14.532Z,42.56
2023-05-09T00:14:14.493Z,42.56
2023-05-09T00:15:14.671Z,42.55
2023-05-09T00:16:14.645Z,42.53
2023-05-09T00:17:14.580Z,42.54
2023-05-09T00:18:14.512Z,42.53
2023-05-09T00:19:14.524Z,42.51
2023-05-09T00:20:14.529Z,42.51
2023-05-09T00:21:14.557Z,42.55
2023-05-09T00:22:14.526Z,42.47
2023-05-09T00:23:14.540Z,42.55
2023-05-09T00:24:14.544Z,42.52
2023-05-09T00:25:14.751Z,42.50
2023-05-09T00:26:14.549Z,42.48
2023-05-09T00:27:14.558Z,42.50
2023-05-09T00:28:14.574Z,42.51
2023-05-09T00:29:14.561Z,42.48
2023-05-09T00:30:14.567Z,42.47
2023-05-09T00:31:14.570Z,42.51
2023-05-09T00:32:14.735Z,42.46
2023-05-09T00:33:14.574Z,42.46
2023-05-09T00:34:14.573Z,42.43
2023-05-09T00:35:14.874Z,42.46
2023-05-09T00:36:14.583Z,42.44
2023-05-09T00:37:14.601Z,42.43
2023-05-09T00:38:14.616Z,42.43
2023-05-09T00:39:14.596Z,42.45
2023-05-09T00:40:14.601Z,42.47
2023-05-09T00:41:14.615Z,42.45
2023-05-09T00:42:14.610Z,42.38
2023-05-09T00:43:14.620Z,42.43
2023-05-09T00:44:14.640Z,42.45
2023-05-09T00:45:14.812Z,42.42
2023-05-09T00:46:14.669Z,42.45
2023-05-09T00:47:14.661Z,42.42
2023-05-09T00:48:14.730Z,42.44
2023-05-09T00:49:14.644Z,42.45
2023-05-09T00:50:14.643Z,42.44
2023-05-09T00:51:14.659Z,42.40
2023-05-09T00:52:14.640Z,42.38
2023-05-09T00:53:14.651Z,42.40
2023-05-09T00:54:14.652Z,42.38
2023-05-09T00:55:14.760Z,42.38
2023-05-09T00:56:14.662Z,42.42
2023-05-09T00:57:14.673Z,42.40
2023-05-09T00:58:14.669Z,42.33
2023-05-09T00:59:15.783Z,42.36
2023-05-09T01:00:14.667Z,42.33
2023-05-09T01:01:14.689Z,42.35
2023-05-09T01:02:14.642Z,42.30
2023-05-09T01:03:14.717Z,42.29
2023-05-09T01:04:14.668Z,42.31
2023-05-09T01:05:15.032Z,42.29
2023-05-09T01:06:14.549Z,42.34
2023-05-09T01:07:14.525Z,42.33
2023-05-09T01:08:14.504Z,42.33
2023-05-09T01:09:14.486Z,42.31
2023-05-09T01:10:14.460Z,42.33
2023-05-09T01:11:14.438Z,42.34
2023-05-09T01:12:14.424Z,42.27
2023-05-09T01:13:14.418Z,42.31
2023-05-09T01:14:14.365Z,42.32
2023-05-09T01:15:14.659Z,42.29
2023-05-09T01:16:14.367Z,42.31
2023-05-09T01:17:14.303Z,42.31
2023-05-09T01:18:14.385Z,42.30
2023-05-09T01:19:14.276Z,42.31
2023-05-09T01:20:14.322Z,42.30
2023-05-09T01:21:14.228Z,42.30
2023-05-09T01:22:14.211Z,42.31
2023-05-09T01:23:14.181Z,42.27
2023-05-09T01:24:14.153Z,42.26
2023-05-09T01:25:14.295Z,42.28
2023-05-09T01:26:14.130Z,42.27
2023-05-09T01:27:14.081Z,42.26
2023-05-09T01:28:14.076Z,42.28
2023-05-09T01:29:14.083Z,42.25
2023-05-09T01:30:14.020Z,42.26
2023-05-09T01:31:14.056Z,42.22
2023-05-09T01:32:13.962Z,42.26
2023-05-09T01:33:13.940Z,42.21
2023-05-09T01:34:13.921Z,42.23
2023-05-09T01:35:14.153Z,42.20
2023-05-09T01:36:13.961Z,42.25
2023-05-09T01:37:13.859Z,42.23
2023-05-09T01:38:13.832Z,42.25
2023-05-09T01:39:13.805Z,42.22
2023-05-09T01:40:13.781Z,42.19
2023-05-09T01:41:13.758Z,42.20
2023-05-09T01:42:13.735Z,42.22
2023-05-09T01:43:13.702Z,42.20
2023-05-09T01:44:13.753Z,42.21
2023-05-09T01:45:13.891Z,42.19
2023-05-09T01:46:13.675Z,42.23
2023-05-09T01:47:13.626Z,42.20
2023-05-09T01:48:13.600Z,42.23
2023-05-09T01:49:13.581Z,42.22
2023-05-09T01:50:13.560Z,42.14
2023-05-09T01:51:13.539Z,42.18
2023-05-09T01:52:13.593Z,42.18
2023-05-09T01:53:13.515Z,42.16
2023-05-09T01:54:13.460Z,42.15
2023-05-09T01:55:13.775Z,42.12
2023-05-09T01:56:13.439Z,42.14
2023-05-09T01:57:13.404Z,42.15
2023-05-09T01:58:13.385Z,42.12
2023-05-09T01:59:13.343Z,42.12
2023-05-09T02:00:13.370Z,42.17
2023-05-09T02:01:13.342Z,42.12
2023-05-09T02:02:13.303Z,42.18
2023-05-09T02:03:13.272Z,42.14
2023-05-09T02:04:13.244Z,42.13
2023-05-09T02:05:13.422Z,42.18
2023-05-09T02:06:13.266Z,42.12
2023-05-09T02:07:13.280Z,42.15
2023-05-09T02:08:13.385Z,42.15
2023-05-09T02:09:13.309Z,42.14
2023-05-09T02:10:13.325Z,42.10
2023-05-09T02:11:13.332Z,42.14
2023-05-09T02:12:13.347Z,42.10
2023-05-09T02:13:13.424Z,42.10
2023-05-09T02:14:13.380Z,42.10
2023-05-09T02:15:13.542Z,42.11
2023-05-09T02:16:13.409Z,42.09
2023-05-09T02:17:13.404Z,42.15
2023-05-09T02:18:13.421Z,42.11
2023-05-09T02:19:13.422Z,42.09
2023-05-09T02:20:13.439Z,42.10
2023-05-09T02:21:13.481Z,42.10
2023-05-09T02:22:13.459Z,42.11
2023-05-09T02:23:13.466Z,42.11
2023-05-09T02:24:13.560Z,42.05
2023-05-09T02:25:13.643Z,42.09
2023-05-09T02:26:13.494Z,42.07
2023-05-09T02:27:13.497Z,42.02
2023-05-09T02:28:13.515Z,42.05
2023-05-09T02:29:13.515Z,42.05
2023-05-09T02:30:13.547Z,42.07
2023-05-09T02:31:13.534Z,42.06
2023-05-09T02:32:13.602Z,42.07
2023-05-09T02:33:13.561Z,42.06
2023-05-09T02:34:13.580Z,42.06
2023-05-09T02:35:13.874Z,42.07
2023-05-09T02:36:13.595Z,42.01
2023-05-09T02:37:13.623Z,42.04
2023-05-09T02:38:13.622Z,42.02
2023-05-09T02:39:13.654Z,42.04
2023-05-09T02:40:13.768Z,41.99
2023-05-09T02:41:13.668Z,42.03
2023-05-09T02:42:13.684Z,42.02
2023-05-09T02:43:13.694Z,42.01
2023-05-09T02:44:13.718Z,41.98
2023-05-09T02:45:13.923Z,42.04
2023-05-09T02:46:13.806Z,42.06
2023-05-09T02:47:13.765Z,41.96
2023-05-09T02:48:13.810Z,42.01
2023-05-09T02:49:22.826Z,41.98
2023-05-09T02:50:14.788Z,41.99
2023-05-09T02:51:13.750Z,42.02
2023-05-09T02:52:13.735Z,41.97
2023-05-09T02:53:13.719Z,42.03
2023-05-09T02:54:13.689Z,41.97
2023-05-09T02:55:13.773Z,42.01
2023-05-09T02:56:13.746Z,41.97
2023-05-09T02:57:13.621Z,41.94
2023-05-09T02:58:14.990Z,41.94
2023-05-09T02:59:13.584Z,41.97
2023-05-09T03:00:13.572Z,41.97
2023-05-09T03:01:13.567Z,41.99
2023-05-09T03:02:13.538Z,41.96
2023-05-09T03:03:13.572Z,41.93
2023-05-09T03:04:13.493Z,41.94
2023-05-09T03:05:13.721Z,41.92
2023-05-09T03:06:13.444Z,41.98
2023-05-09T03:07:13.423Z,41.97
2023-05-09T03:08:13.411Z,41.90
2023-05-09T03:09:13.430Z,41.91
2023-05-09T03:10:13.453Z,41.94
2023-05-09T03:11:13.449Z,41.89
2023-05-09T03:12:13.558Z,41.92
2023-05-09T03:13:13.580Z,41.91
2023-05-09T03:14:13.525Z,41.88
2023-05-09T03:15:13.848Z,41.90
2023-05-09T03:16:13.566Z,41.88
2023-05-09T03:17:13.534Z,41.91
2023-05-09T03:18:13.544Z,41.93
2023-05-09T03:19:13.545Z,41.91
2023-05-09T03:20:13.559Z,41.94
2023-05-09T03:21:13.571Z,41.85
2023-05-09T03:22:13.578Z,41.90
2023-05-09T03:23:13.603Z,41.89
2023-05-09T03:24:13.619Z,41.86
2023-05-09T03:25:13.772Z,41.87
2023-05-09T03:26:13.637Z,41.91
2023-05-09T03:27:13.663Z,41.91
2023-05-09T03:28:13.778Z,41.87
2023-05-09T03:29:13.701Z,41.91
2023-05-09T03:30:13.733Z,41.86
2023-05-09T03:31:13.732Z,41.86
2023-05-09T03:33:13.792Z,41.89
2023-05-09T03:34:13.781Z,41.87
2023-05-09T03:35:14.046Z,41.86
2023-05-09T03:36:13.805Z,41.79
2023-05-09T03:37:13.840Z,41.84
2023-05-09T03:38:13.834Z,41.86
2023-05-09T03:39:13.853Z,41.82
2023-05-09T03:40:13.869Z,41.85
2023-05-09T03:41:13.878Z,41.81
2023-05-09T03:42:13.895Z,41.80
2023-05-09T03:43:13.906Z,41.80
2023-05-09T03:44:14.042Z,41.80
2023-05-09T03:45:14.137Z,41.80
2023-05-09T03:46:13.978Z,41.80
2023-05-09T03:47:13.984Z,41.81
2023-05-09T03:48:14.045Z,41.82
2023-05-09T03:49:14.045Z,41.80
2023-05-09T03:50:14.025Z,41.77
2023-05-09T03:51:14.035Z,41.73
2023-05-09T03:52:14.056Z,41.76
2023-05-09T03:53:14.072Z,41.76
2023-05-09T03:54:14.097Z,41.79
2023-05-09T03:55:14.170Z,41.75
2023-05-09T03:56:14.132Z,41.78
2023-05-09T03:57:14.146Z,41.77
2023-05-09T03:58:14.156Z,41.82
2023-05-09T03:59:14.174Z,41.76
2023-05-09T04:00:14.209Z,41.76
2023-05-09T04:01:14.206Z,41.73
2023-05-09T04:02:14.292Z,41.74
2023-05-09T04:03:14.300Z,41.72
2023-05-09T04:04:14.355Z,41.76
2023-05-09T04:05:14.419Z,41.77
2023-05-09T04:06:14.284Z,41.70
2023-05-09T04:07:14.318Z,41.73
2023-05-09T04:08:14.328Z,41.76
2023-05-09T04:09:14.349Z,41.74
2023-05-09T04:10:14.364Z,41.71
2023-05-09T04:11:14.394Z,41.72
2023-05-09T04:12:14.395Z,41.73
2023-05-09T04:13:14.448Z,41.72
2023-05-09T04:14:14.436Z,41.72
2023-05-09T04:15:14.652Z,41.69
2023-05-09T04:16:14.652Z,41.72
2023-05-09T04:17:14.486Z,41.71
2023-05-09T04:18:14.493Z,41.70
2023-05-09T04:19:14.506Z,41.69
2023-05-09T04:20:14.515Z,41.68
2023-05-09T04:21:14.529Z,41.69
2023-05-09T04:22:14.540Z,41.70
2023-05-09T04:23:14.541Z,41.68
2023-05-09T04:24:14.554Z,41.68
2023-05-09T04:25:14.790Z,41.68
2023-05-09T04:26:14.589Z,41.65
2023-05-09T04:27:14.607Z,41.66
2023-05-09T04:28:14.620Z,41.65
2023-05-09T04:29:14.649Z,41.65
2023-05-09T04:30:14.662Z,41.69
2023-05-09T04:31:14.809Z,41.64
2023-05-09T04:32:14.849Z,41.69
2023-05-09T04:33:14.711Z,41.68
2023-05-09T04:34:14.727Z,41.62
2023-05-09T04:35:16.054Z,41.63
2023-05-09T04:36:14.898Z,41.63
2023-05-09T04:37:14.916Z,41.65
2023-05-09T04:38:14.950Z,41.63
2023-05-09T04:39:14.949Z,41.63
2023-05-09T04:40:14.964Z,41.65
2023-05-09T04:41:14.986Z,41.61
2023-05-09T04:42:15.004Z,41.59
2023-05-09T04:43:15.663Z,41.61
2023-05-09T04:44:15.063Z,41.64
2023-05-09T04:45:15.222Z,41.64
2023-05-09T04:46:15.112Z,41.60
2023-05-09T04:47:15.107Z,41.64
2023-05-09T04:48:15.199Z,41.59
2023-05-09T04:49:15.134Z,41.59
2023-05-09T04:50:15.150Z,41.56
2023-05-09T04:51:15.155Z,41.58
2023-05-09T04:52:15.168Z,41.52
2023-05-09T04:53:15.178Z,41.58
2023-05-09T04:54:15.343Z,41.58
2023-05-09T04:55:15.382Z,41.59
2023-05-09T04:56:15.208Z,41.54
2023-05-09T04:57:18.273Z,41.53
2023-05-09T04:58:15.202Z,41.58
2023-05-09T04:59:15.202Z,41.55
2023-05-09T05:00:15.164Z,41.56
2023-05-09T05:01:15.192Z,41.52
2023-05-09T05:02:15.138Z,41.52
2023-05-09T05:03:15.111Z,41.53
2023-05-09T05:04:15.226Z,41.53
2023-05-09T05:05:15.098Z,41.50
2023-05-09T05:06:15.072Z,41.54
2023-05-09T05:07:15.070Z,41.49
2023-05-09T05:08:15.046Z,41.51
2023-05-09T05:09:15.029Z,41.51
2023-05-09T05:10:15.011Z,41.45
2023-05-09T05:11:15.013Z,41.44
2023-05-09T05:12:14.995Z,41.49
2023-05-09T05:13:15.012Z,41.47
2023-05-09T05:14:14.954Z,41.49
2023-05-09T05:15:15.202Z,41.43
2023-05-09T05:16:14.974Z,41.45
2023-05-09T05:17:14.907Z,41.45
2023-05-09T05:18:14.891Z,41.46
2023-05-09T05:19:14.945Z,41.42
2023-05-09T05:20:14.959Z,41.44
2023-05-09T05:21:14.847Z,41.49
2023-05-09T05:22:14.846Z,41.28
2023-05-09T05:23:14.824Z,41.26
2023-05-09T05:24:14.806Z,41.07
2023-05-09T05:25:15.233Z,42.13
2023-05-09T05:26:14.765Z,41.77
2023-05-09T05:27:14.751Z,41.82
2023-05-09T05:28:14.735Z,41.58
2023-05-09T05:29:14.724Z,41.87
2023-05-09T05:30:14.704Z,42.08
2023-05-09T05:31:14.725Z,42.12
2023-05-09T05:32:14.665Z,41.98
2023-05-09T05:33:14.662Z,42.67
2023-05-09T05:34:14.642Z,42.36
2023-05-09T05:35:14.809Z,42.11
2023-05-09T05:36:14.684Z,42.05
2023-05-09T05:37:14.570Z,41.98
2023-05-09T05:38:14.556Z,41.81
2023-05-09T05:39:14.531Z,41.57
2023-05-09T05:40:15.187Z,41.51
2023-05-09T05:41:14.495Z,41.48
2023-05-09T05:42:14.469Z,41.47
2023-05-09T05:43:14.450Z,41.60
2023-05-09T05:44:14.472Z,41.47
2023-05-09T05:45:14.574Z,41.33
2023-05-09T05:46:15.429Z,41.18
2023-05-09T05:47:14.358Z,41.55
2023-05-09T05:48:14.338Z,41.51
2023-05-09T05:49:14.323Z,41.31
2023-05-09T05:50:14.302Z,41.18
2023-05-09T05:51:14.283Z,41.33
2023-05-09T05:52:14.348Z,41.25
2023-05-09T05:53:14.248Z,41.20
2023-05-09T05:54:14.233Z,41.05
2023-05-09T05:55:14.414Z,41.07
2023-05-09T05:56:14.181Z,41.05
2023-05-09T05:57:14.159Z,40.97
2023-05-09T05:58:14.158Z,40.99
2023-05-09T05:59:14.129Z,40.89
2023-05-09T06:00:14.727Z,40.91
2023-05-09T06:01:14.063Z,41.03
2023-05-09T06:02:14.242Z,41.09
2023-05-09T06:03:14.174Z,41.38
2023-05-09T06:04:14.032Z,41.17
2023-05-09T06:05:14.172Z,40.92
2023-05-09T06:06:13.965Z,40.78
2023-05-09T06:07:13.955Z,41.42
2023-05-09T06:08:14.000Z,41.20
2023-05-09T06:09:13.887Z,41.65
2023-05-09T06:10:13.869Z,41.73
2023-05-09T06:11:13.832Z,41.62
2023-05-09T06:12:13.815Z,41.80
2023-05-09T06:13:13.813Z,41.82
2023-05-09T06:14:13.769Z,41.92
2023-05-09T06:15:14.020Z,42.05
2023-05-09T06:16:19.568Z,42.29
2023-05-09T06:17:14.864Z,42.32
2023-05-09T06:18:13.765Z,42.60
2023-05-09T06:19:13.749Z,42.62
2023-05-09T06:20:13.696Z,42.54
2023-05-09T06:21:13.658Z,42.86
2023-05-09T06:22:13.637Z,42.68
2023-05-09T06:23:13.584Z,42.68
2023-05-09T06:24:20.133Z,42.64
2023-05-09T06:25:14.686Z,42.58
2023-05-09T06:26:13.450Z,42.56
2023-05-09T06:27:13.418Z,42.60
2023-05-09T06:28:13.386Z,42.45
2023-05-09T06:29:13.341Z,42.43
2023-05-09T06:30:24.886Z,42.43
2023-05-09T06:31:14.327Z,42.39
2023-05-09T06:32:13.221Z,42.35
2023-05-09T06:33:13.212Z,42.40
2023-05-09T06:34:13.159Z,42.41
2023-05-09T06:35:13.273Z,42.48
2023-05-09T06:36:13.094Z,42.46
2023-05-09T06:37:13.057Z,42.46
2023-05-09T06:38:13.016Z,42.51
2023-05-09T06:39:13.015Z,42.56
2023-05-09T06:40:13.151Z,42.56
2023-05-09T06:41:13.079Z,42.61
2023-05-09T06:42:13.108Z,42.67
2023-05-09T06:43:13.160Z,42.64
2023-05-09T06:44:13.714Z,42.69
2023-05-09T06:45:13.398Z,42.72
2023-05-09T06:46:13.260Z,42.77
2023-05-09T06:47:14.243Z,42.76
2023-05-09T06:48:13.305Z,42.76
2023-05-09T06:49:13.342Z,42.85
2023-05-09T06:50:13.386Z,42.86
2023-05-09T06:51:13.419Z,42.83
2023-05-09T06:52:13.456Z,42.76
2023-05-09T06:53:13.487Z,42.82
2023-05-09T06:54:13.531Z,42.85
2023-05-09T06:55:13.662Z,42.85
2023-05-09T06:56:13.764Z,42.85
2023-05-09T06:57:13.638Z,42.83
2023-05-09T06:58:13.674Z,42.79
2023-05-09T06:59:13.707Z,42.73
2023-05-09T07:00:13.747Z,42.75
2023-05-09T07:01:13.795Z,42.75
2023-05-09T07:02:13.836Z,42.70
2023-05-09T07:03:13.891Z,42.67
2023-05-09T07:04:13.913Z,42.66
2023-05-09T07:05:14.080Z,42.71
2023-05-09T07:06:14.005Z,42.64
2023-05-09T07:07:14.042Z,42.61
2023-05-09T07:08:14.091Z,42.65
2023-05-09T07:09:14.135Z,42.67
2023-05-09T07:10:14.175Z,42.64
2023-05-09T07:11:14.227Z,42.60
2023-05-09T07:12:14.357Z,42.56
2023-05-09T07:13:14.375Z,42.62
2023-05-09T07:14:14.367Z,42.57
2023-05-09T07:15:16.858Z,42.59
2023-05-09T07:16:15.428Z,42.59
2023-05-09T07:17:22.728Z,43.09
2023-05-09T07:18:15.340Z,43.22
2023-05-09T07:19:14.307Z,43.28
2023-05-09T07:20:14.277Z,43.58
2023-05-09T07:21:14.254Z,43.48
2023-05-09T07:22:14.256Z,43.80
2023-05-09T07:23:14.204Z,43.17
2023-05-09T07:24:14.199Z,43.57
2023-05-09T07:25:14.426Z,42.98
2023-05-09T07:26:14.741Z,43.10
2023-05-09T07:27:14.211Z,42.26
2023-05-09T07:28:14.303Z,41.61
2023-05-09T07:29:14.260Z,41.49
2023-05-09T07:30:14.415Z,41.22
2023-05-09T07:31:14.399Z,41.27
2023-05-09T07:32:14.424Z,40.72
2023-05-09T07:33:14.462Z,40.47
2023-05-09T07:34:14.455Z,40.58
2023-05-09T07:35:14.759Z,40.95
2023-05-09T07:36:14.523Z,41.01
2023-05-09T07:37:16.260Z,41.15
2023-05-09T07:38:14.729Z,41.09
2023-05-09T07:39:14.620Z,40.98
2023-05-09T07:40:14.978Z,41.33
2023-05-09T07:41:14.663Z,41.28
2023-05-09T07:42:14.688Z,41.06
2023-05-09T07:43:14.721Z,40.90
2023-05-09T07:44:14.803Z,41.05
2023-05-09T07:45:14.958Z,40.82
2023-05-09T07:46:14.793Z,40.87
2023-05-09T07:47:14.802Z,41.00
2023-05-09T07:48:14.834Z,40.61
2023-05-09T07:49:14.853Z,41.28
2023-05-09T07:50:14.882Z,41.31
2023-05-09T07:51:14.895Z,41.02
2023-05-09T07:52:14.930Z,41.34
2023-05-09T07:53:14.944Z,41.37
2023-05-09T07:54:14.969Z,40.97
2023-05-09T07:55:15.946Z,41.07
2023-05-09T07:56:14.991Z,41.26
2023-05-09T07:57:15.003Z,41.05
2023-05-09T07:58:15.016Z,41.01
2023-05-09T07:59:15.026Z,39.97
2023-05-09T08:00:15.134Z,40.89
2023-05-09T08:01:15.057Z,40.18
2023-05-09T08:02:15.133Z,40.19
2023-05-09T08:03:15.337Z,40.23
2023-05-09T08:04:15.106Z,40.30
2023-05-09T08:05:15.252Z,40.08
2023-05-09T08:06:15.105Z,40.48
2023-05-09T08:07:15.121Z,40.44
2023-05-09T08:08:15.134Z,40.54
2023-05-09T08:09:15.151Z,40.97
2023-05-09T08:10:15.155Z,40.39
2023-05-09T08:11:15.174Z,40.31
2023-05-09T08:12:15.214Z,39.89
2023-05-09T08:13:15.263Z,39.82
2023-05-09T08:14:15.686Z,39.58
2023-05-09T08:15:15.612Z,39.81
2023-05-09T08:16:15.633Z,39.91
2023-05-09T08:17:15.364Z,40.25
2023-05-09T08:18:16.325Z,40.30
2023-05-09T08:19:15.322Z,40.39
2023-05-09T08:20:15.259Z,40.44
2023-05-09T08:21:15.223Z,40.61
2023-05-09T08:22:15.193Z,40.57
2023-05-09T08:23:15.152Z,40.47
2023-05-09T08:24:15.121Z,40.65
2023-05-09T08:25:15.251Z,40.94
2023-05-09T08:26:15.743Z,40.74
2023-05-09T08:27:15.115Z,40.41
2023-05-09T08:28:15.156Z,41.26
2023-05-09T08:29:15.167Z,41.44
2023-05-09T08:30:15.200Z,41.53
2023-05-09T08:31:15.242Z,41.56
2023-05-09T08:32:15.478Z,41.94
2023-05-09T08:33:15.258Z,41.98
2023-05-09T08:34:15.251Z,42.06
2023-05-09T08:35:15.518Z,42.27
2023-05-09T08:36:15.252Z,42.10
2023-05-09T08:37:15.724Z,42.32
2023-05-09T08:38:15.242Z,42.24
2023-05-09T08:39:15.239Z,42.29
2023-05-09T08:40:15.458Z,42.36
2023-05-09T08:41:15.237Z,42.47
2023-05-09T08:42:15.229Z,42.42
2023-05-09T08:43:15.213Z,42.48
2023-05-09T08:44:15.187Z,42.51
2023-05-09T08:45:15.183Z,42.70
2023-05-09T08:46:15.190Z,42.82
2023-05-09T08:47:15.121Z,42.98
2023-05-09T08:48:15.196Z,42.99
2023-05-09T08:49:15.078Z,43.08
2023-05-09T08:50:15.380Z,43.48
2023-05-09T08:51:15.015Z,43.35
2023-05-09T08:52:14.981Z,43.26
2023-05-09T08:53:14.956Z,44.03
2023-05-09T08:54:14.942Z,43.52
2023-05-09T08:55:14.885Z,43.59
2023-05-09T08:56:14.851Z,43.70
2023-05-09T08:57:14.812Z,43.86
2023-05-09T08:58:14.782Z,43.93
2023-05-09T08:59:14.741Z,44.06
2023-05-09T09:00:15.952Z,44.32
2023-05-09T09:01:14.673Z,44.31
2023-05-09T09:02:14.690Z,44.30
2023-05-09T09:03:14.639Z,44.34
2023-05-09T09:04:14.755Z,44.27
2023-05-09T09:05:34.064Z,44.31
2023-05-09T09:06:15.391Z,44.47
2023-05-09T09:07:14.339Z,44.73
2023-05-09T09:08:14.316Z,44.57
2023-05-09T09:09:14.244Z,44.79
2023-05-09T09:10:14.451Z,44.80
2023-05-09T09:11:14.117Z,44.72
2023-05-09T09:12:14.071Z,44.74
2023-05-09T09:13:14.059Z,45.19
2023-05-09T09:14:13.987Z,45.08
2023-05-09T09:15:13.910Z,45.98
2023-05-09T09:16:13.888Z,45.48
2023-05-09T09:17:13.802Z,45.49
2023-05-09T09:18:13.805Z,45.32
2023-05-09T09:19:13.693Z,45.23
2023-05-09T09:20:13.988Z,45.05
2023-05-09T09:21:13.550Z,45.13
2023-05-09T09:22:14.620Z,42.36
2023-05-09T09:23:13.430Z,41.04
2023-05-09T09:24:13.386Z,38.32
2023-05-09T09:25:13.317Z,37.65
2023-05-09T09:26:16.282Z,36.97
2023-05-09T09:27:13.254Z,36.46
2023-05-09T09:28:13.220Z,37.02
2023-05-09T09:29:13.201Z,36.30
2023-05-09T09:30:13.483Z,36.29
2023-05-09T09:31:13.452Z,36.49
2023-05-09T09:32:13.135Z,36.98
2023-05-09T09:33:13.072Z,37.07
2023-05-09T09:34:12.962Z,36.99
2023-05-09T09:35:12.917Z,37.21
2023-05-09T09:36:12.900Z,37.41
2023-05-09T09:37:12.861Z,37.51
2023-05-09T09:38:12.823Z,37.57
2023-05-09T09:39:12.783Z,37.35
2023-05-09T09:40:12.921Z,37.12
2023-05-09T09:41:12.732Z,37.40
2023-05-09T09:42:12.691Z,37.12
2023-05-09T09:43:12.663Z,37.49
2023-05-09T09:44:12.645Z,37.05
2023-05-09T09:45:13.207Z,37.00
2023-05-09T09:46:12.561Z,36.76
2023-05-09T09:47:12.538Z,36.44
2023-05-09T09:48:12.858Z,36.28
2023-05-09T09:49:12.471Z,36.15
2023-05-09T09:50:13.472Z,35.72
2023-05-09T09:51:12.408Z,35.64
2023-05-09T09:52:12.468Z,35.49
2023-05-09T09:53:12.352Z,35.69
2023-05-09T09:54:12.368Z,35.81
2023-05-09T09:55:12.391Z,35.85
2023-05-09T09:56:12.401Z,35.94
2023-05-09T09:57:12.435Z,35.78
2023-05-09T09:58:12.474Z,35.58
2023-05-09T09:59:12.501Z,36.10
2023-05-09T10:00:12.651Z,35.79
2023-05-09T10:01:12.532Z,36.13
2023-05-09T10:02:12.531Z,35.99
2023-05-09T10:03:12.701Z,35.93
2023-05-09T10:04:12.613Z,36.05
2023-05-09T10:05:12.578Z,35.67
2023-05-09T10:06:12.579Z,35.49
2023-05-09T10:07:14.800Z,35.61
2023-05-09T10:08:12.899Z,35.68
2023-05-09T10:09:12.810Z,35.32
2023-05-09T10:10:13.174Z,36.33
2023-05-09T10:11:12.847Z,35.97
2023-05-09T10:12:12.853Z,35.89
2023-05-09T10:13:12.970Z,35.89
2023-05-09T10:14:12.877Z,36.03
2023-05-09T10:15:12.882Z,36.13
2023-05-09T10:16:13.043Z,36.15
2023-05-09T10:17:12.924Z,36.22
2023-05-09T10:18:12.977Z,36.21
2023-05-09T10:19:12.895Z,36.24
2023-05-09T10:20:13.107Z,36.32
2023-05-09T10:21:12.913Z,36.25
2023-05-09T10:22:12.918Z,36.28
2023-05-09T10:23:12.936Z,36.28
2023-05-09T10:24:12.933Z,36.29
2023-05-09T10:25:13.901Z,36.37
2023-05-09T10:26:13.718Z,36.32
2023-05-09T10:27:13.018Z,36.28
2023-05-09T10:28:12.936Z,36.38
2023-05-09T10:29:12.955Z,36.39
2023-05-09T10:30:12.965Z,36.40
2023-05-09T10:31:13.055Z,36.38
2023-05-09T10:32:12.983Z,36.40
2023-05-09T10:33:12.996Z,36.45
2023-05-09T10:34:13.054Z,36.37
2023-05-09T10:35:13.250Z,36.45
2023-05-09T10:36:13.011Z,36.43
2023-05-09T10:37:13.013Z,36.43
2023-05-09T10:38:13.050Z,36.43
2023-05-09T10:39:13.034Z,36.47
2023-05-09T10:40:13.126Z,36.46
2023-05-09T10:41:13.046Z,36.47
2023-05-09T10:42:13.058Z,36.52
2023-05-09T10:43:13.068Z,36.53
2023-05-09T10:44:13.081Z,36.52
2023-05-09T10:45:13.522Z,36.60
2023-05-09T10:46:13.191Z,36.64
2023-05-09T10:47:13.125Z,36.58
2023-05-09T10:48:13.106Z,36.61
2023-05-09T10:49:13.121Z,36.65
2023-05-09T10:50:13.117Z,36.62
2023-05-09T10:51:13.228Z,36.62
2023-05-09T10:52:13.138Z,36.67
2023-05-09T10:53:13.127Z,36.71
2023-05-09T10:54:13.143Z,36.72
2023-05-09T10:55:13.387Z,36.69
2023-05-09T10:56:13.219Z,36.74
2023-05-09T10:57:13.156Z,36.70
2023-05-09T10:58:13.147Z,36.71
2023-05-09T10:59:13.147Z,36.69
2023-05-09T11:00:13.159Z,36.76
2023-05-09T11:01:13.175Z,36.75
2023-05-09T11:02:13.147Z,36.77
2023-05-09T11:03:13.287Z,36.75
2023-05-09T11:04:13.234Z,36.73
2023-05-09T11:05:13.457Z,36.73
2023-05-09T11:06:13.177Z,36.79
2023-05-09T11:07:13.180Z,36.77
2023-05-09T11:08:13.204Z,36.87
2023-05-09T11:09:13.199Z,36.87
2023-05-09T11:10:13.210Z,36.85
2023-05-09T11:11:13.225Z,36.88
2023-05-09T11:12:13.334Z,36.85
2023-05-09T11:13:13.302Z,36.93
2023-05-09T11:14:13.270Z,36.93
2023-05-09T11:15:13.421Z,36.91
2023-05-09T11:16:13.304Z,36.92
2023-05-09T11:17:13.302Z,36.97
2023-05-09T11:18:13.342Z,36.89
2023-05-09T11:19:13.298Z,36.96
2023-05-09T11:20:13.315Z,36.94
2023-05-09T11:21:13.317Z,36.90
2023-05-09T11:22:13.318Z,36.88
2023-05-09T11:23:13.330Z,36.92
2023-05-09T11:24:13.342Z,36.85
2023-05-09T11:25:13.514Z,36.92
2023-05-09T11:26:13.359Z,36.93
2023-05-09T11:27:13.359Z,36.95
2023-05-09T11:28:13.459Z,36.95
2023-05-09T11:29:13.388Z,36.98
2023-05-09T11:30:13.390Z,36.94
2023-05-09T11:31:13.391Z,36.94
2023-05-09T11:32:13.423Z,36.94
2023-05-09T11:33:13.442Z,36.97
2023-05-09T11:34:13.414Z,36.94
2023-05-09T11:35:13.693Z,36.93
2023-05-09T11:36:13.440Z,36.97
2023-05-09T11:37:13.492Z,36.96
2023-05-09T11:38:13.447Z,36.97
2023-05-09T11:39:13.461Z,36.90
2023-05-09T11:40:14.328Z,36.96
2023-05-09T11:41:13.485Z,36.94
2023-05-09T11:42:13.476Z,36.96
2023-05-09T11:43:13.492Z,36.97
2023-05-09T11:44:13.567Z,36.98
2023-05-09T11:45:13.879Z,36.97
2023-05-09T11:46:13.521Z,36.96
2023-05-09T11:47:13.497Z,36.98
2023-05-09T11:48:13.506Z,36.95
2023-05-09T11:49:13.511Z,36.97
2023-05-09T11:50:13.510Z,36.95
2023-05-09T11:51:13.523Z,36.97
2023-05-09T11:52:13.510Z,36.93
2023-05-09T11:53:13.514Z,36.98
2023-05-09T11:54:13.549Z,36.96
2023-05-09T11:55:13.621Z,36.97
2023-05-09T11:56:13.527Z,36.96
2023-05-09T11:57:13.529Z,36.92
2023-05-09T11:58:13.533Z,36.97
2023-05-09T11:59:13.533Z,36.98
2023-05-09T12:00:13.625Z,36.96
2023-05-09T12:01:13.540Z,36.97
2023-05-09T12:02:13.634Z,36.97
2023-05-09T12:03:13.609Z,36.96
2023-05-09T12:04:13.578Z,36.96
2023-05-09T12:05:13.772Z,36.97
2023-05-09T12:06:13.557Z,36.96
2023-05-09T12:07:13.565Z,37.00
2023-05-09T12:08:14.442Z,37.02
2023-05-09T12:09:15.362Z,36.96
2023-05-09T12:10:13.562Z,37.00
2023-05-09T12:11:13.567Z,36.97
2023-05-09T12:12:13.575Z,37.02
2023-05-09T12:13:13.660Z,37.01
2023-05-09T12:14:13.565Z,37.02
2023-05-09T12:15:14.103Z,37.05
2023-05-09T12:16:13.711Z,37.02
2023-05-09T12:17:13.587Z,37.03
2023-05-09T12:18:13.628Z,37.02
2023-05-09T12:19:13.591Z,37.01
2023-05-09T12:20:13.592Z,37.00
2023-05-09T12:21:13.590Z,36.98
2023-05-09T12:22:13.592Z,37.03
2023-05-09T12:23:13.592Z,37.07
2023-05-09T12:24:13.598Z,37.03
2023-05-09T12:25:13.886Z,37.02
2023-05-09T12:26:13.605Z,37.00
2023-05-09T12:27:13.595Z,37.02
2023-05-09T12:28:13.603Z,37.07
2023-05-09T12:29:13.678Z,37.06
2023-05-09T12:30:13.608Z,37.10
2023-05-09T12:31:13.620Z,37.06
2023-05-09T12:32:13.703Z,37.07
2023-05-09T12:33:13.610Z,37.08
2023-05-09T12:34:13.606Z,37.06
2023-05-09T12:35:13.711Z,37.08
2023-05-09T12:36:13.607Z,37.03
2023-05-09T12:37:13.591Z,37.01
2023-05-09T12:38:13.586Z,37.02
2023-05-09T12:39:13.586Z,37.05
2023-05-09T12:40:13.602Z,37.03
2023-05-09T12:41:30.254Z,37.05
2023-05-09T12:42:14.535Z,37.01
2023-05-09T12:43:13.512Z,37.06
2023-05-09T12:44:13.451Z,37.01
2023-05-09T12:45:13.672Z,37.05
2023-05-09T12:46:13.393Z,37.01
2023-05-09T12:47:13.413Z,37.06
2023-05-09T12:48:13.379Z,37.08
2023-05-09T12:49:13.261Z,37.01
2023-05-09T12:50:13.245Z,37.03
2023-05-09T12:51:13.173Z,37.05
2023-05-09T12:52:13.138Z,37.06
2023-05-09T12:53:13.110Z,37.05